Säätilassa ei varoituksia.

Lähimmät METAR asemat

 

EFPO - Pori (mil/Civ), Finland
Distance from station: PLU 42km
Päivitetty: 13/04/2021 01:50
Vaihtelevaa
Vaihtelevaa
 Wind from LO
Tuuli: LO 9 km/h
Lämpötila: 3°C
Wind Chill: 0°C
Kastepiste: 2°C
Kosteus: 93%
Ilmanpaine: 1015 hPa
Clouds: Vaihtelevaa
Visibility: 10 km
Cloud details: Vaihtelevaa 244 m
2021/04/12 22:50 EFPO 122250Z AUTO 23005KT 180V280 9999 OVC008 03/02 Q1015
EFTU - Turku/Abo, Finland
Distance from station: E 68km
Päivitetty: 13/04/2021 01:50
Few Clouds
Few Clouds
 Wind from LO
Tuuli: LO 6 km/h
Lämpötila: 4°C
Kastepiste: 3°C
Kosteus: 93%
Ilmanpaine: 1016 hPa
Clouds: Few Clouds
Visibility: 10 km
Cloud details: Few Clouds 1128 m
2021/04/12 22:50 EFTU 122250Z AUTO 23003KT 9999 FEW037 04/03 Q1016
 
EFTP - Tampere/Pirkkala, Finland
Distance from station: IKO 84km
Päivitetty: 13/04/2021 01:50
Heikkoa sadetta, Vaihtelevaa
Heikkoa sadetta, Vaihtelevaa
 Wind from LO
Tuuli: LO 17 km/h
Lämpötila: 6°C
Wind Chill: 3°C
Kastepiste: 5°C
Kosteus: 93%
Ilmanpaine: 1014 hPa
Yhteenveto: Heikkoa sadetta
Clouds: Vaihtelevaa
Visibility: 9 km
Cloud details: Vaihtelevaa 122 m
2021/04/12 22:50 EFTP 122250Z AUTO 23009KT 9000 -RA OVC004 06/05 Q1014